Latest Weather Observations for Archerfield

IDQ60901

Issued at 8:45 pm EST Thursday 27 November 2014 (issued every 10 minutes, with the page automatically refreshed every 10 minutes)

About weather observations | Map of Brisbane area stations | Latest observations for Brisbane area | Other Formats
Station Details ID: 040211 Name: ARCHERFIELD AIRPORT Lat: -27.57 Lon: 153.01 Height: 12.5 m
Data from the previous 72 hours. | See also: Recent months at Archerfield
Date/Time
EST
Tmp

°C
App
Tmp
°C
Dew
Point
°C
Rel
Hum
%
Delta-T

°C
Wind Press
QNH
hPa
Press
MSL
hPa
Rain
since
9 am
mm
Dir
 
Spd
km/h
Gust
km/h
Spd
kts
Gust
kts
27/08:30pm 22.5 26.1 22.3 99 0.1 ESE 7 9 4 5 1016.9 1016.8 71.6
27/08:00pm 22.3 25.8 22.1 99 0.1 S 7 9 4 5 1016.7 1016.6 71.6
27/07:30pm 22.4 25.5 22.2 99 0.1 SE 9 11 5 6 1016.4 1016.3 71.6
27/07:00pm 22.5 26.2 22.3 99 0.1 SSW 6 11 3 6 1017.0 1016.9 71.2
27/06:30pm 22.6 24.3 22.4 99 0.1 SSW 17 26 9 14 1017.1 1017.0 71.2
27/06:00pm 22.3 24.2 22.1 99 0.1 ESE 15 20 8 11 1015.2 1015.1 71.2
27/05:30pm 21.2 22.2 21.0 99 0.1 ENE 17 22 9 12 1015.3 1015.2 70.8
27/05:12pm 20.5 20.2 20.3 99 0.1 E 22 30 12 16 1014.8 1014.7 70.4
27/05:00pm 19.8 20.1 19.5 98 0.2 E 17 22 9 12 1015.2 1015.1 70.4
27/04:42pm 20.0 18.6 19.7 98 0.2 SE 26 39 14 21 1016.2 1016.1 59.4
27/04:39pm 17.1 12.0 16.8 98 0.2 S 39 69 21 37 1016.6 1016.5 50.8
27/04:38pm 18.2 13.6 17.9 98 0.2 SE 39 57 21 31 1016.8 1016.7 47.4
27/04:36pm 16.8 10.6 16.5 98 0.2 ESE 44 57 24 31 1016.5 1016.4 40.6
27/04:35pm 16.1 9.3 15.8 98 0.2 SSE 46 61 25 33 1016.5 1016.4 37.6
27/04:33pm 16.2 6.5 15.7 97 0.3 SSW 61 83 33 45 1015.6 1015.5 32.8
27/04:30pm 15.8 -3.4 14.8 94 0.6 SSW 109 141 59 76 1015.0 1014.9 19.8
27/04:29pm 17.3 -1.9 16.7 96 0.4 S 113 141 61 76 1014.3 1014.2 14.2
27/04:27pm 18.5 6.0 17.8 96 0.4 S 80 120 43 65 1013.6 1013.5 7.4
27/04:25pm 18.1 6.7 16.6 91 0.9 S 72 95 39 51 1013.6 1013.5 3.0
27/04:22pm 19.5 13.1 16.0 80 2.1 S 44 76 24 41 1014.1 1014.0 0.4
27/04:19pm 26.1 21.5 15.2 51 6.6 S 33 61 18 33 1014.0 1013.9 0.0
27/04:00pm 29.3 27.9 18.7 52 6.8 ENE 24 33 13 18 1012.6 1012.5 0.0
27/03:30pm 30.0 28.1 19.4 53 6.9 NE 28 37 15 20 1012.2 1012.1 0.0
27/03:00pm 30.8 29.0 18.8 48 7.8 NE 26 37 14 20 1011.6 1011.5 0.0
27/02:30pm 30.9 29.2 18.9 48 7.8 NNE 26 37 14 20 1012.2 1012.1 0.0
27/02:00pm 31.4 31.0 19.4 49 7.9 NNE 20 30 11 16 1012.6 1012.5 0.0
27/01:30pm 30.3 31.1 18.1 48 7.8 NNE 11 20 6 11 1013.0 1012.9 0.0
27/01:00pm 32.0 32.5 17.5 42 9.3 SSE 11 19 6 10 1013.3 1013.2 0.0
27/12:30pm 31.8 33.3 17.7 43 9.0 WNW 6 17 3 9 1013.7 1013.6 0.0
27/12:00pm 31.0 32.4 17.7 45 8.5 N 7 17 4 9 1014.2 1014.1 0.0
27/11:30am 30.4 31.5 17.1 44 8.4 WSW 7 13 4 7 1014.6 1014.5 0.0
27/11:00am 29.3 30.6 18.4 51 7.0 WSW 9 13 5 7 1015.1 1015.0 0.0
27/10:30am 30.0 31.3 19.4 53 6.9 WSW 11 15 6 8 1015.5 1015.4 0.0
27/10:00am 29.0 30.5 19.0 54 6.5 NNE 9 15 5 8 1015.7 1015.6 0.0
27/09:30am 28.1 29.2 17.9 54 6.5 NW 9 20 5 11 1016.1 1016.0 0.0
27/09:00am 27.7 29.9 19.5 61 5.3 W 7 13 4 7 1016.3 1016.2 0.0
27/08:30am 26.1 27.2 18.8 64 4.7 W 11 15 6 8 1016.7 1016.6 0.0
27/08:00am 26.0 28.8 19.6 68 4.1 SW 4 7 2 4 1016.7 1016.6 0.0
27/07:30am 25.2 27.6 19.6 71 3.6 SW 6 11 3 6 1016.7 1016.6 0.0
27/07:00am 24.4 26.7 19.9 76 2.9 S 7 9 4 5 1016.5 1016.4 0.0
27/06:30am 23.3 25.9 20.4 84 1.9 S 7 9 4 5 1016.3 1016.2 0.0
27/06:00am 23.2 25.7 20.3 84 1.9 S 7 9 4 5 1016.2 1016.1 0.0
27/05:30am 22.7 24.7 20.0 85 1.7 S 9 9 5 5 1015.9 1015.8 0.0
27/05:00am 22.4 24.7 19.8 85 1.7 S 7 7 4 4 1015.6 1015.5 0.0
27/04:30am 22.6 25.1 19.9 85 1.7 S 6 9 3 5 1015.5 1015.4 0.0
27/04:00am 22.6 24.7 20.1 86 1.6 S 9 11 5 6 1015.2 1015.1 0.0
27/03:30am 22.5 24.5 20.0 86 1.6 S 9 11 5 6 1015.0 1014.9 0.0
27/03:00am 22.6 24.9 19.8 84 1.8 SSW 7 11 4 6 1015.1 1015.0 0.0
27/02:30am 23.2 25.6 20.0 82 2.1 SSW 7 11 4 6 1015.2 1015.1 0.0
27/02:00am 23.5 26.0 20.2 82 2.1 WNW 7 13 4 7 1015.4 1015.3 0.0
27/01:30am 23.7 25.6 19.8 79 2.5 NNW 9 11 5 6 1015.2 1015.1 0.0
27/01:00am 23.8 26.7 19.9 79 2.5 N 4 7 2 4 1015.5 1015.4 0.0
27/12:30am 23.8 26.3 19.9 79 2.5 NNW 6 9 3 5 1015.7 1015.6 0.0
27/12:00am 23.8 25.4 19.9 79 2.5 N 11 17 6 9 1015.7 1015.6 0.0
 
Date/Time
EST
Tmp

°C
App
Tmp
°C
Dew
Point
°C
Rel
Hum
%
Delta-T

°C
Wind Press
QNH
hPa
Press
MSL
hPa
Rain
since
9 am
mm
Dir
 
Spd
km/h
Gust
km/h
Spd
kts
Gust
kts
26/11:30pm 24.1 25.7 20.0 78 2.7 N 11 17 6 9 1016.1 1016.0 0.0
26/11:00pm 24.1 25.0 20.0 78 2.6 N 15 20 8 11 1016.2 1016.1 0.0
26/10:30pm 24.2 24.9 19.7 76 2.9 NNE 15 19 8 10 1016.5 1016.4 0.0
26/10:00pm 24.2 25.3 19.7 76 2.9 NNE 13 17 7 9 1016.8 1016.7 0.0
26/09:30pm 24.3 25.3 19.4 74 3.1 NE 13 15 7 8 1017.1 1017.0 0.0
26/09:00pm 24.6 26.2 19.2 72 3.4 ENE 9 13 5 7 1017.3 1017.2 0.0
26/08:30pm 24.6 26.8 19.2 72 3.5 NNE 6 7 3 4 1017.6 1017.5 0.0
26/08:00pm 24.5 26.2 19.3 73 3.3 NNE 9 11 5 6 1017.2 1017.1 0.0
26/07:30pm 24.8 26.1 19.2 71 3.6 NNE 11 17 6 9 1017.2 1017.1 0.0
26/07:00pm 25.2 25.0 18.4 66 4.3 ENE 17 20 9 11 1016.8 1016.7 0.0
26/06:30pm 25.2 25.3 18.4 66 4.3 ENE 15 20 8 11 1016.6 1016.5 0.0
26/06:00pm 25.6 25.0 18.5 65 4.5 ENE 19 24 10 13 1016.3 1016.2 0.0
26/05:30pm 25.9 25.7 18.6 64 4.6 NE 17 22 9 12 1015.7 1015.6 0.0
26/05:00pm 26.2 26.0 18.6 63 4.8 NE 17 22 9 12 1015.3 1015.2 0.0
26/04:30pm 26.5 26.1 19.4 65 4.6 ENE 20 26 11 14 1014.9 1014.8 0.0
26/04:00pm 26.8 26.4 19.4 64 4.8 NE 20 28 11 15 1015.0 1014.9 0.0
26/03:30pm 27.4 27.3 20.0 64 4.8 N 20 28 11 15 1014.5 1014.4 0.0
26/03:00pm 27.9 27.4 19.9 61 5.2 NE 22 30 12 16 1014.6 1014.5 0.0
26/02:30pm 28.1 27.8 19.6 60 5.5 NE 20 28 11 15 1014.8 1014.7 0.0
26/02:00pm 28.8 28.7 20.0 59 5.8 NE 20 30 11 16 1014.9 1014.8 0.0
26/01:30pm 28.1 27.3 19.3 58 5.7 NNE 22 32 12 17 1014.8 1014.7 0.0
26/01:00pm 28.4 27.5 18.2 54 6.5 NNE 20 26 11 14 1015.2 1015.1 0.0
26/12:30pm 29.1 28.9 19.4 55 6.3 NNE 19 28 10 15 1015.6 1015.5 0.0
26/12:00pm 28.9 28.1 20.1 59 5.8 N 24 30 13 16 1016.0 1015.9 0.0
26/11:30am 28.0 27.4 19.8 61 5.3 N 22 30 12 16 1016.4 1016.3 0.0
26/11:00am 26.5 26.4 19.6 66 4.5 N 19 26 10 14 1016.9 1016.8 0.0
26/10:30am 25.9 26.5 21.1 75 3.2 N 19 24 10 13 1016.8 1016.7 0.0
26/10:00am 26.5 26.1 21.0 72 3.6 N 24 32 13 17 1016.8 1016.7 0.0
26/09:30am 25.8 24.8 20.4 72 3.5 N 26 33 14 18 1017.0 1016.9 0.0
26/09:00am 26.4 27.3 20.0 68 4.2 N 15 20 8 11 1016.9 1016.8 4.2
26/08:30am 25.4 25.5 20.4 74 3.3 NNW 20 24 11 13 1017.1 1017.0 4.2
26/08:27am 25.1 25.3 20.6 76 2.9 NNW 20 24 11 13 1017.1 1017.0 4.2
26/08:00am 25.7 26.1 20.9 75 3.2 ENE 20 28 11 15 1016.8 1016.7 4.2
26/07:48am 26.1 28.3 22.6 81 2.4 NE 15 22 8 12 1016.9 1016.8 4.2
26/07:30am 25.2 26.3 21.9 82 2.2 E 19 24 10 13 1016.9 1016.8 4.2
26/07:00am 24.2 25.5 22.3 89 1.3 E 19 22 10 12 1016.9 1016.8 4.0
26/06:51am 23.9 25.7 21.8 88 1.4 ESE 15 20 8 11 1016.8 1016.7 4.0
26/06:35am 23.6 25.4 21.9 90 1.1 ESE 15 20 8 11 1016.7 1016.6 4.0
26/06:30am 23.6 25.8 21.9 90 1.1 E 13 19 7 10 1016.6 1016.5 4.0
26/06:23am 23.4 25.6 21.8 91 1.1 ESE 13 17 7 9 1016.5 1016.4 4.0
26/06:00am 23.5 26.6 22.1 92 0.9 ESE 9 15 5 8 1016.4 1016.3 4.0
26/05:30am 22.9 24.6 21.7 93 0.8 ESE 15 20 8 11 1015.9 1015.8 3.8
26/05:00am 23.5 26.2 22.1 92 0.9 ESE 11 13 6 7 1015.7 1015.6 2.8
26/04:30am 23.5 26.2 22.1 92 0.9 E 11 17 6 9 1015.4 1015.3 2.8
26/04:00am 23.6 26.7 22.2 92 0.9 ENE 9 13 5 7 1015.2 1015.1 2.6
26/03:36am 23.5 25.9 22.3 93 0.8 ESE 13 19 7 10 1015.1 1015.0 2.6
26/03:30am 23.5 25.8 22.1 92 0.9 ESE 13 19 7 10 1015.1 1015.0 2.6
26/03:00am 23.4 26.0 22.0 92 0.9 SE 11 15 6 8 1015.0 1014.9 1.4
26/02:30am 23.3 26.6 21.9 92 0.9 E 7 11 4 6 1015.1 1015.0 1.4
26/02:00am 22.9 25.1 21.2 90 1.1 ENE 11 15 6 8 1015.2 1015.1 1.4
26/01:30am 23.2 25.2 21.5 90 1.1 ENE 13 15 7 8 1015.6 1015.5 1.4
26/01:00am 23.1 25.6 21.0 88 1.4 ENE 9 15 5 8 1015.9 1015.8 1.0
26/12:30am 24.5 26.7 21.8 85 1.8 ESE 13 17 7 9 1016.1 1016.0 0.0
26/12:00am 24.7 26.6 21.4 82 2.2 SE 13 17 7 9 1016.5 1016.4 0.0
 
Date/Time
EST
Tmp

°C
App
Tmp
°C
Dew
Point
°C
Rel
Hum
%
Delta-T

°C
Wind Press
QNH
hPa
Press
MSL
hPa
Rain
since
9 am
mm
Dir
 
Spd
km/h
Gust
km/h
Spd
kts
Gust
kts
25/11:30pm 25.0 27.5 21.7 82 2.2 SSE 11 15 6 8 1017.1 1017.0 0.0
25/11:00pm 25.2 28.3 21.5 80 2.4 ESE 7 11 4 6 1017.4 1017.3 0.0
25/10:30pm 25.1 27.9 21.6 81 2.3 ENE 9 11 5 6 1017.5 1017.4 0.0
25/10:00pm 25.3 27.3 21.6 80 2.5 E 13 17 7 9 1017.3 1017.2 0.0
25/09:30pm 25.3 27.0 21.6 80 2.5 ENE 15 19 8 10 1017.0 1016.9 0.0
25/09:00pm 25.5 27.5 21.6 79 2.6 E 13 17 7 9 1016.9 1016.8 0.0
25/08:30pm 25.5 27.2 21.6 79 2.6 ENE 15 20 8 11 1016.4 1016.3 0.0
25/08:00pm 25.7 27.3 21.4 77 2.8 ENE 15 20 8 11 1015.8 1015.7 0.0
25/07:30pm 25.7 26.3 21.4 77 2.9 ENE 20 28 11 15 1014.8 1014.7 0.0
25/07:00pm 25.4 26.1 21.5 79 2.6 NE 20 33 11 18 1014.1 1014.0 0.0
25/06:30pm 25.3 24.7 21.2 78 2.7 NNE 26 37 14 20 1012.9 1012.8 0.0
25/06:00pm 25.8 24.6 20.8 74 3.3 NNE 28 39 15 21 1012.0 1011.9 0.0
25/05:30pm 26.5 24.6 20.1 68 4.2 NNE 30 37 16 20 1011.7 1011.6 0.0
25/05:00pm 28.0 25.6 19.2 58 5.7 N 30 37 16 20 1011.3 1011.2 0.0
25/04:30pm 28.8 26.0 19.1 55 6.3 N 32 37 17 20 1011.2 1011.1 0.0
25/04:00pm 29.6 26.6 18.7 52 7.0 N 32 41 17 22 1011.0 1010.9 0.0
25/03:30pm 30.3 27.6 18.4 49 7.7 NNE 30 39 16 21 1011.0 1010.9 0.0
25/03:00pm 30.8 28.4 18.2 47 8.1 NNE 28 35 15 19 1011.2 1011.1 0.0
25/02:30pm 30.8 28.1 17.5 45 8.5 NNE 28 35 15 19 1011.5 1011.4 0.0
25/02:00pm 30.8 28.3 17.1 43 8.7 NNE 26 33 14 18 1011.7 1011.6 0.0
25/01:30pm 31.1 28.3 17.4 44 8.7 N 28 37 15 20 1011.8 1011.7 0.0
25/01:00pm 31.5 30.0 18.5 46 8.4 NNE 24 33 13 18 1012.2 1012.1 0.0
25/12:30pm 30.9 30.1 17.9 45 8.3 N 19 26 10 14 1012.6 1012.5 0.0
25/12:00pm 30.9 31.1 17.6 45 8.5 N 13 22 7 12 1013.0 1012.9 0.0
25/11:30am 31.0 31.3 17.0 43 8.9 NNE 11 17 6 9 1013.4 1013.3 0.0
25/11:00am 30.7 31.3 16.7 43 8.8 S 9 13 5 7 1014.0 1013.9 0.0
25/10:30am 29.7 30.8 16.5 45 8.2 WSW 6 11 3 6 1014.5 1014.4 0.0
25/10:00am 29.1 30.2 16.6 46 7.8 WNW 6 13 3 7 1015.1 1015.0 0.0
25/09:30am 28.6 29.3 16.2 47 7.7 NNE 7 13 4 7 1015.3 1015.2 0.0
25/09:00am 27.6 27.7 16.6 51 6.8 N 11 19 6 10 1015.3 1015.2 0.0
25/08:30am 27.1 27.7 16.7 53 6.5 N 9 19 5 10 1015.6 1015.5 0.0
25/08:00am 26.7 27.3 17.7 57 5.7 NNW 11 17 6 9 1015.7 1015.6 0.0
25/07:30am 25.2 25.3 17.4 62 4.9 NW 13 20 7 11 1015.9 1015.8 0.0
25/07:00am 24.4 26.0 18.3 69 3.8 NNW 7 13 4 7 1016.0 1015.9 0.0
25/06:30am 23.7 25.9 19.2 76 2.9 NNW 6 9 3 5 1015.7 1015.6 0.0
25/06:00am 22.8 25.1 19.4 81 2.2 NNW 6 11 3 6 1015.2 1015.1 0.0
25/05:30am 21.7 23.8 19.3 86 1.5 W 7 11 4 6 1015.2 1015.1 0.0
25/05:00am 20.9 22.6 18.5 86 1.5 NW 7 9 4 5 1014.6 1014.5 0.0
25/04:30am 21.4 22.1 18.8 85 1.6 N 13 20 7 11 1014.4 1014.3 0.0
25/04:00am 21.2 21.9 18.9 87 1.4 N 13 19 7 10 1014.1 1014.0 0.0
25/03:30am 21.6 22.3 18.8 84 1.8 N 13 19 7 10 1014.1 1014.0 0.0
25/03:00am 22.0 22.0 19.0 83 1.9 N 17 22 9 12 1014.0 1013.9 0.0
25/02:30am 22.0 22.8 19.0 83 1.9 N 13 19 7 10 1014.0 1013.9 0.0
25/02:00am 22.5 22.7 19.3 82 2.0 N 17 24 9 13 1013.9 1013.8 0.0
25/01:30am 22.8 22.4 19.4 81 2.2 N 20 28 11 15 1014.1 1014.0 0.0
25/01:00am 23.0 22.6 19.4 80 2.3 N 20 26 11 14 1014.3 1014.2 0.0
25/12:30am 22.9 22.7 19.3 80 2.3 N 19 26 10 14 1014.6 1014.5 0.0
25/12:00am 23.1 22.7 19.3 79 2.4 N 20 32 11 17 1014.6 1014.5 0.0
 
Date/Time
EST
Tmp

°C
App
Tmp
°C
Dew
Point
°C
Rel
Hum
%
Delta-T

°C
Wind Press
QNH
hPa
Press
MSL
hPa
Rain
since
9 am
mm
Dir
 
Spd
km/h
Gust
km/h
Spd
kts
Gust
kts
24/11:30pm 23.4 22.2 19.3 78 2.6 N 24 32 13 17 1014.6 1014.5 0.0
24/11:00pm 24.0 22.2 19.5 76 2.9 N 28 41 15 22 1014.9 1014.8 0.0
24/10:30pm 24.0 23.4 19.7 77 2.8 N 22 30 12 16 1015.1 1015.0 0.0
24/10:00pm 23.9 22.1 19.6 77 2.8 N 28 37 15 20 1015.2 1015.1 0.0
24/09:30pm 24.0 21.5 19.7 77 2.8 N 32 44 17 24 1014.9 1014.8 0.0
24/09:00pm 24.0 20.9 19.7 77 2.8 N 35 44 19 24 1014.7 1014.6 0.0

Latest Capital City Observations: Canberra | Sydney | Melbourne | Brisbane | Adelaide | Perth | Hobart | Darwin

Other Formats:

Comma delimited format used in spreadsheet applications
http://www.bom.gov.au/fwo/IDQ60901/IDQ60901.94575.axf

JavaScript Object Notation format (JSON) in row-major order
http://www.bom.gov.au/fwo/IDQ60901/IDQ60901.94575.json